createdAt,value
2022-09-30T00:23:41.140Z,81.48
2022-09-30T00:26:31.823Z,81.40
2022-09-30T00:29:20.331Z,81.64
2022-09-30T00:32:07.271Z,81.81
2022-09-30T00:34:54.300Z,81.79
2022-09-30T00:37:41.080Z,81.76
2022-09-30T00:40:28.486Z,81.82
2022-09-30T00:43:15.316Z,81.86
2022-09-30T00:46:11.493Z,82.04
2022-09-30T00:48:59.408Z,82.22
2022-09-30T00:51:55.301Z,82.06
2022-09-30T00:54:46.365Z,82.23
2022-09-30T00:57:33.789Z,82.11
2022-09-30T01:00:21.720Z,82.45
2022-09-30T01:03:09.687Z,82.29
2022-09-30T01:05:56.501Z,82.33
2022-09-30T01:08:46.617Z,82.34
2022-09-30T01:11:34.018Z,82.42
2022-09-30T01:14:25.768Z,82.32
2022-09-30T01:17:35.037Z,82.40
2022-09-30T01:20:52.679Z,82.44
2022-09-30T01:23:48.589Z,82.37
2022-09-30T01:27:02.016Z,82.18
2022-09-30T01:30:13.756Z,82.50
2022-09-30T01:33:09.984Z,82.22
2022-09-30T01:36:12.023Z,82.39
2022-09-30T01:39:02.151Z,82.34
2022-09-30T01:42:10.113Z,82.58
2022-09-30T01:45:21.694Z,82.38
2022-09-30T01:48:17.438Z,82.37
2022-09-30T01:51:12.753Z,82.41
2022-09-30T01:53:59.500Z,82.53
2022-09-30T01:57:01.818Z,82.48
2022-09-30T02:00:13.360Z,82.43
2022-09-30T02:03:08.416Z,82.03
2022-09-30T02:06:01.176Z,82.59
2022-09-30T02:08:53.773Z,82.34
2022-09-30T02:11:45.812Z,82.46
2022-09-30T02:14:36.684Z,82.42
2022-09-30T02:17:49.579Z,82.71
2022-09-30T02:20:47.103Z,82.59
2022-09-30T02:23:45.893Z,82.58
2022-09-30T02:26:49.249Z,82.58
2022-09-30T02:29:41.798Z,82.62
2022-09-30T02:32:40.151Z,82.50
2022-09-30T02:35:34.126Z,82.52
2022-09-30T02:38:38.036Z,82.66
2022-09-30T02:41:31.127Z,82.67
2022-09-30T02:44:19.913Z,82.62
2022-09-30T02:47:20.428Z,82.45
2022-09-30T02:50:32.480Z,82.77
2022-09-30T02:53:34.620Z,82.89
2022-09-30T02:56:43.135Z,82.94
2022-09-30T02:59:30.233Z,82.85
2022-09-30T03:02:18.052Z,82.75
2022-09-30T03:05:06.603Z,82.80
2022-09-30T03:07:54.747Z,82.97
2022-09-30T03:10:41.780Z,82.81
2022-09-30T03:13:52.371Z,82.98
2022-09-30T03:17:09.708Z,82.84
2022-09-30T03:20:15.459Z,82.81
2022-09-30T03:23:21.184Z,83.15
2022-09-30T03:26:41.040Z,82.94
2022-09-30T03:29:50.579Z,82.89
2022-09-30T03:32:43.363Z,83.18
2022-09-30T03:35:30.321Z,83.07
2022-09-30T03:38:44.843Z,83.16
2022-09-30T03:41:53.642Z,83.07
2022-09-30T03:44:51.508Z,82.94
2022-09-30T03:47:42.083Z,83.15
2022-09-30T03:50:32.008Z,82.89
2022-09-30T03:53:19.161Z,82.66
2022-09-30T03:56:08.194Z,83.08
2022-09-30T03:58:57.155Z,82.50
2022-09-30T04:01:44.732Z,82.82
2022-09-30T04:04:31.689Z,82.95
2022-09-30T04:07:18.683Z,82.76
2022-09-30T04:10:05.710Z,82.54
2022-09-30T04:12:52.831Z,82.86
2022-09-30T04:15:39.808Z,82.66
2022-09-30T04:18:27.038Z,82.78
2022-09-30T04:21:14.104Z,82.75
2022-09-30T04:24:02.534Z,82.76
2022-09-30T04:26:49.677Z,82.84
2022-09-30T04:29:37.279Z,82.74
2022-09-30T04:32:24.194Z,82.85
2022-09-30T04:35:11.607Z,82.60
2022-09-30T04:38:02.631Z,82.75
2022-09-30T04:40:49.403Z,82.51
2022-09-30T04:43:37.683Z,82.61
2022-09-30T04:46:24.630Z,82.62
2022-09-30T04:49:12.081Z,82.84
2022-09-30T04:51:59.119Z,82.53
2022-09-30T04:54:46.392Z,81.90
2022-09-30T04:57:33.167Z,82.61
2022-09-30T05:00:20.279Z,82.59
2022-09-30T05:03:07.568Z,82.40
2022-09-30T05:05:54.672Z,82.32
2022-09-30T05:08:45.397Z,81.97
2022-09-30T05:11:38.540Z,82.58
2022-09-30T05:14:31.149Z,82.36
2022-09-30T05:17:18.357Z,82.54
2022-09-30T05:20:05.263Z,82.40
2022-09-30T05:22:52.199Z,82.67
2022-09-30T05:25:39.031Z,82.49
2022-09-30T05:28:25.924Z,82.50
2022-09-30T05:31:21.105Z,82.69
2022-09-30T05:34:08.228Z,82.67
2022-09-30T05:36:55.210Z,82.62
2022-09-30T05:39:42.184Z,82.74
2022-09-30T05:42:29.185Z,82.53
2022-09-30T05:45:16.008Z,82.72
2022-09-30T05:48:02.863Z,82.42
2022-09-30T05:50:50.136Z,82.63
2022-09-30T05:53:38.181Z,82.75
2022-09-30T05:56:29.627Z,82.58
2022-09-30T05:59:16.473Z,82.59
2022-09-30T06:02:03.508Z,82.62
2022-09-30T06:04:50.381Z,82.67
2022-09-30T06:07:37.388Z,82.81
2022-09-30T06:10:26.377Z,82.85
2022-09-30T06:13:13.503Z,82.75
2022-09-30T06:16:00.472Z,82.78
2022-09-30T06:18:49.497Z,82.82
2022-09-30T06:21:37.439Z,82.64
2022-09-30T06:24:24.663Z,82.58
2022-09-30T06:27:11.461Z,82.55
2022-09-30T06:29:58.541Z,82.66
2022-09-30T06:32:45.340Z,82.79
2022-09-30T06:35:32.311Z,82.65
2022-09-30T06:38:19.196Z,82.73
2022-09-30T06:41:06.308Z,82.25
2022-09-30T06:44:09.499Z,82.59
2022-09-30T06:46:56.958Z,82.75
2022-09-30T06:49:49.430Z,82.78
2022-09-30T06:52:37.072Z,82.84
2022-09-30T06:55:24.366Z,82.66
2022-09-30T06:58:11.202Z,82.85
2022-09-30T07:00:58.269Z,82.86
2022-09-30T07:03:47.437Z,82.74
2022-09-30T07:06:36.153Z,82.89
2022-09-30T07:09:23.241Z,82.91
2022-09-30T07:12:10.276Z,82.03
2022-09-30T07:14:57.432Z,82.33
2022-09-30T07:17:44.217Z,82.57
2022-09-30T07:20:31.161Z,82.59
2022-09-30T07:23:17.981Z,82.53
2022-09-30T07:26:13.487Z,81.94
2022-09-30T07:29:00.495Z,82.62
2022-09-30T07:31:47.781Z,82.48
2022-09-30T07:34:34.757Z,82.44
2022-09-30T07:37:22.096Z,82.48
2022-09-30T07:40:09.162Z,82.40
2022-09-30T07:42:59.566Z,82.25
2022-09-30T07:45:46.574Z,82.50
2022-09-30T07:48:33.449Z,82.42
2022-09-30T07:51:20.664Z,82.33
2022-09-30T07:54:10.297Z,82.03
2022-09-30T07:57:09.807Z,81.99
2022-09-30T08:00:11.750Z,82.35
2022-09-30T08:03:06.916Z,82.18
2022-09-30T08:05:59.868Z,81.88
2022-09-30T08:08:46.900Z,82.52
2022-09-30T08:11:34.530Z,82.12
2022-09-30T08:14:23.790Z,82.49
2022-09-30T08:17:11.162Z,82.11
2022-09-30T08:19:58.151Z,82.02
2022-09-30T08:22:45.169Z,82.47
2022-09-30T08:25:32.154Z,81.99
2022-09-30T08:28:19.116Z,81.86
2022-09-30T08:31:06.084Z,81.97
2022-09-30T08:33:53.549Z,81.70
2022-09-30T08:36:43.103Z,81.72
2022-09-30T08:39:30.129Z,82.10
2022-09-30T08:42:36.565Z,81.49
2022-09-30T08:45:45.583Z,82.04
2022-09-30T08:48:59.798Z,81.98
2022-09-30T08:51:54.059Z,81.20
2022-09-30T08:54:44.733Z,81.14
2022-09-30T08:57:32.937Z,81.21
2022-09-30T09:00:26.636Z,81.26
2022-09-30T09:03:19.669Z,80.82
2022-09-30T09:06:40.451Z,81.01
2022-09-30T09:09:45.880Z,81.07
2022-09-30T09:12:47.589Z,80.51
2022-09-30T09:16:17.649Z,80.64
2022-09-30T09:19:04.401Z,79.94
2022-09-30T09:22:00.596Z,80.29
2022-09-30T09:25:05.020Z,80.48
2022-09-30T09:28:11.271Z,79.93
2022-09-30T09:31:07.957Z,80.27
2022-09-30T09:33:59.587Z,79.63
2022-09-30T09:36:58.476Z,79.94
2022-09-30T09:40:17.495Z,79.75
2022-09-30T09:43:29.510Z,79.35
2022-09-30T09:46:19.667Z,79.29
2022-09-30T09:49:06.790Z,79.66
2022-09-30T09:52:00.763Z,78.98
2022-09-30T09:54:49.707Z,79.18
2022-09-30T09:57:39.627Z,79.51
2022-09-30T10:00:44.347Z,78.69
2022-09-30T10:03:40.235Z,79.17
2022-09-30T10:06:31.444Z,79.15
2022-09-30T10:09:14.171Z,79.02
2022-09-30T10:12:01.125Z,78.84
2022-09-30T10:14:48.136Z,77.84
2022-09-30T10:17:40.833Z,77.75
2022-09-30T10:20:44.685Z,78.37
2022-09-30T10:23:41.578Z,77.75
2022-09-30T10:26:34.934Z,78.21
2022-09-30T10:29:23.484Z,78.05
2022-09-30T10:32:12.213Z,78.10
2022-09-30T10:35:03.391Z,77.30
2022-09-30T10:37:51.590Z,78.06
2022-09-30T10:40:39.919Z,78.22
2022-09-30T10:43:41.856Z,77.42
2022-09-30T10:46:29.784Z,78.15
2022-09-30T10:49:18.613Z,77.70
2022-09-30T10:52:05.975Z,77.74
2022-09-30T10:55:17.972Z,77.37
2022-09-30T10:58:06.977Z,77.28
2022-09-30T11:00:53.929Z,76.73
2022-09-30T11:03:47.986Z,76.96
2022-09-30T11:06:34.786Z,77.58
2022-09-30T11:09:44.588Z,76.92
2022-09-30T11:13:08.255Z,76.61
2022-09-30T11:16:05.295Z,77.25
2022-09-30T11:18:58.305Z,76.91
2022-09-30T11:21:45.246Z,76.92
2022-09-30T11:24:35.373Z,76.56
2022-09-30T11:27:31.565Z,76.23
2022-09-30T11:30:30.785Z,76.26
2022-09-30T11:34:02.307Z,76.40
2022-09-30T11:36:49.167Z,76.56
2022-09-30T11:40:07.054Z,76.36
2022-09-30T11:43:08.585Z,76.98
2022-09-30T11:45:58.179Z,76.42
2022-09-30T11:48:50.861Z,76.03
2022-09-30T11:51:29.044Z,75.88
2022-09-30T11:54:28.841Z,75.34
2022-09-30T11:57:24.207Z,76.50
2022-09-30T12:00:03.368Z,76.05
2022-09-30T12:03:10.278Z,75.71
2022-09-30T12:06:21.760Z,76.38
2022-09-30T12:09:13.307Z,75.44
2022-09-30T12:12:04.185Z,75.92
2022-09-30T12:15:02.912Z,76.28
2022-09-30T12:18:13.518Z,75.31
2022-09-30T12:21:20.584Z,75.51
2022-09-30T12:24:15.125Z,76.51
2022-09-30T12:27:02.209Z,75.94
2022-09-30T12:29:55.695Z,76.33
2022-09-30T12:32:52.171Z,76.32
2022-09-30T12:36:09.796Z,75.89
2022-09-30T12:39:14.380Z,76.58
2022-09-30T12:42:36.165Z,76.03
2022-09-30T12:45:46.321Z,76.54
2022-09-30T12:48:38.193Z,76.67
2022-09-30T12:51:25.742Z,76.52
2022-09-30T12:54:21.104Z,76.74
2022-09-30T12:57:14.577Z,76.70
2022-09-30T13:00:12.006Z,77.01
2022-09-30T13:03:02.809Z,76.95
2022-09-30T13:05:49.961Z,77.19
2022-09-30T13:08:36.791Z,76.89
2022-09-30T13:11:26.200Z,77.34
2022-09-30T13:14:32.780Z,77.04
2022-09-30T13:17:19.976Z,77.20
2022-09-30T13:20:10.945Z,77.09
2022-09-30T13:23:04.218Z,77.06
2022-09-30T13:26:14.117Z,77.05
2022-09-30T13:29:01.300Z,76.92
2022-09-30T13:32:12.402Z,77.15
2022-09-30T13:35:15.191Z,77.03
2022-09-30T13:38:02.061Z,77.25
2022-09-30T13:41:07.286Z,77.04
2022-09-30T13:44:08.508Z,76.77
2022-09-30T13:46:57.753Z,77.42
2022-09-30T13:49:50.511Z,76.83
2022-09-30T13:52:45.404Z,77.26
2022-09-30T13:55:42.369Z,76.70
2022-09-30T13:58:57.202Z,76.97
2022-09-30T14:01:56.278Z,77.66
2022-09-30T14:05:06.394Z,77.14
2022-09-30T14:08:12.131Z,76.87
2022-09-30T14:11:21.104Z,77.47
2022-09-30T14:14:14.095Z,77.21
2022-09-30T14:17:18.814Z,77.73
2022-09-30T14:20:08.780Z,77.50
2022-09-30T14:22:56.844Z,77.77
2022-09-30T14:25:43.736Z,78.03
2022-09-30T14:28:43.857Z,77.15
2022-09-30T14:31:34.561Z,77.89
2022-09-30T14:34:21.952Z,77.16
2022-09-30T14:37:14.248Z,77.72
2022-09-30T14:40:07.734Z,77.46
2022-09-30T14:43:01.100Z,77.30
2022-09-30T14:45:51.364Z,77.19
2022-09-30T14:48:45.461Z,77.86
2022-09-30T14:51:36.147Z,77.69
2022-09-30T14:54:23.083Z,77.50
2022-09-30T14:57:11.077Z,77.81
2022-09-30T14:59:58.071Z,77.31
2022-09-30T15:02:45.078Z,77.42
2022-09-30T15:05:35.608Z,77.77
2022-09-30T15:08:22.891Z,78.11
2022-09-30T15:11:12.912Z,77.74
2022-09-30T15:14:00.012Z,77.31
2022-09-30T15:16:49.316Z,77.86
2022-09-30T15:19:46.231Z,77.60
2022-09-30T15:22:34.333Z,77.31
2022-09-30T15:25:21.748Z,77.14
2022-09-30T15:28:09.224Z,76.96
2022-09-30T15:30:56.327Z,76.96
2022-09-30T15:33:43.460Z,77.46
2022-09-30T15:36:38.665Z,77.15
2022-09-30T15:39:36.565Z,76.79
2022-09-30T15:42:23.549Z,76.90
2022-09-30T15:45:10.448Z,76.87
2022-09-30T15:48:17.537Z,77.05
2022-09-30T15:51:05.894Z,76.98
2022-09-30T15:54:13.340Z,77.33
2022-09-30T15:57:00.271Z,77.05
2022-09-30T16:00:18.826Z,77.22
2022-09-30T16:03:05.899Z,77.35
2022-09-30T16:05:54.105Z,77.05
2022-09-30T16:08:47.812Z,77.01
2022-09-30T16:11:41.992Z,77.19
2022-09-30T16:14:43.994Z,77.38
2022-09-30T16:17:59.331Z,76.83
2022-09-30T16:20:46.273Z,76.98
2022-09-30T16:23:59.608Z,77.56
2022-09-30T16:26:49.592Z,77.35
2022-09-30T16:29:36.811Z,77.26
2022-09-30T16:32:23.656Z,77.65
2022-09-30T16:35:10.836Z,77.64
2022-09-30T16:37:57.660Z,77.54
2022-09-30T16:40:46.472Z,78.09
2022-09-30T16:43:33.343Z,78.21
2022-09-30T16:46:20.484Z,78.43
2022-09-30T16:49:07.309Z,78.24
2022-09-30T16:51:54.692Z,78.00
2022-09-30T16:54:41.650Z,78.41
2022-09-30T16:57:29.183Z,78.48
2022-09-30T17:00:16.019Z,77.94
2022-09-30T17:03:02.983Z,78.22
2022-09-30T17:05:49.983Z,78.06
2022-09-30T17:08:37.472Z,78.91
2022-09-30T17:11:24.537Z,78.13
2022-09-30T17:14:11.555Z,78.72
2022-09-30T17:16:58.441Z,78.97
2022-09-30T17:19:45.512Z,78.74
2022-09-30T17:22:32.425Z,78.62
2022-09-30T17:25:19.467Z,78.32
2022-09-30T17:28:12.673Z,78.83
2022-09-30T17:31:00.695Z,79.27
2022-09-30T17:33:52.373Z,78.62
2022-09-30T17:36:39.180Z,78.97
2022-09-30T17:39:26.021Z,79.26
2022-09-30T17:42:11.599Z,78.89
2022-09-30T17:44:58.601Z,79.41
2022-09-30T17:47:45.841Z,79.09
2022-09-30T17:50:32.700Z,79.44
2022-09-30T17:53:19.703Z,78.98
2022-09-30T17:56:08.712Z,79.56
2022-09-30T17:58:56.355Z,79.65
2022-09-30T18:01:44.021Z,78.79
2022-09-30T18:04:31.193Z,79.25
2022-09-30T18:07:18.414Z,79.12
2022-09-30T18:10:05.562Z,79.82
2022-09-30T18:12:52.431Z,79.63
2022-09-30T18:15:39.851Z,79.84
2022-09-30T18:18:26.691Z,79.82
2022-09-30T18:21:13.664Z,79.63
2022-09-30T18:24:00.495Z,79.25
2022-09-30T18:26:49.959Z,79.34
2022-09-30T18:29:36.745Z,79.63
2022-09-30T18:32:23.871Z,79.92
2022-09-30T18:35:10.656Z,79.64
2022-09-30T18:37:58.431Z,79.53
2022-09-30T18:40:46.920Z,79.93
2022-09-30T18:43:34.623Z,80.28
2022-09-30T18:46:21.540Z,80.10
2022-09-30T18:49:10.413Z,80.04
2022-09-30T18:51:57.575Z,80.00
2022-09-30T18:54:44.508Z,79.91
2022-09-30T18:57:31.386Z,80.02
2022-09-30T19:00:19.100Z,80.00
2022-09-30T19:03:06.248Z,80.09
2022-09-30T19:05:53.319Z,80.23
2022-09-30T19:08:40.336Z,80.27
2022-09-30T19:11:30.347Z,80.42
2022-09-30T19:14:18.001Z,80.04
2022-09-30T19:17:05.095Z,80.01
2022-09-30T19:19:54.315Z,80.33
2022-09-30T19:22:41.316Z,80.33
2022-09-30T19:25:33.317Z,80.26
2022-09-30T19:28:20.727Z,80.04
2022-09-30T19:31:07.733Z,80.21
2022-09-30T19:33:56.869Z,80.30
2022-09-30T19:36:51.509Z,80.66
2022-09-30T19:39:45.568Z,80.18
2022-09-30T19:42:33.007Z,80.33
2022-09-30T19:45:23.556Z,80.46
2022-09-30T19:48:12.021Z,80.17
2022-09-30T19:50:58.983Z,80.00
2022-09-30T19:53:57.388Z,80.42
2022-09-30T19:56:49.284Z,80.24
2022-09-30T19:59:36.649Z,80.34
2022-09-30T20:02:23.827Z,80.41
2022-09-30T20:05:10.725Z,80.38
2022-09-30T20:07:58.364Z,80.19
2022-09-30T20:10:45.187Z,80.40
2022-09-30T20:13:32.284Z,80.55
2022-09-30T20:16:30.934Z,80.09
2022-09-30T20:19:17.901Z,80.43
2022-09-30T20:22:06.159Z,80.54
2022-09-30T20:24:53.116Z,80.64
2022-09-30T20:27:39.905Z,80.59
2022-09-30T20:30:27.386Z,80.71
2022-09-30T20:33:14.244Z,80.48
2022-09-30T20:36:01.235Z,80.45
2022-09-30T20:38:48.134Z,80.55
2022-09-30T20:41:35.447Z,80.72
2022-09-30T20:44:27.486Z,80.68
2022-09-30T20:47:14.370Z,80.52
2022-09-30T20:50:01.228Z,80.52
2022-09-30T20:52:48.388Z,80.48
2022-09-30T20:55:35.261Z,80.81
2022-09-30T20:58:22.262Z,80.72
2022-09-30T21:01:09.079Z,80.93
2022-09-30T21:03:58.432Z,80.89
2022-09-30T21:06:47.382Z,80.57
2022-09-30T21:09:34.373Z,80.42
2022-09-30T21:12:21.446Z,80.87
2022-09-30T21:15:08.393Z,80.99
2022-09-30T21:17:55.331Z,80.78
2022-09-30T21:20:42.335Z,80.80
2022-09-30T21:23:29.225Z,80.92
2022-09-30T21:26:19.917Z,81.03
2022-09-30T21:29:06.831Z,80.52
2022-09-30T21:31:53.915Z,80.76
2022-09-30T21:34:40.873Z,80.82
2022-09-30T21:37:28.160Z,80.87
2022-09-30T21:40:15.067Z,81.02
2022-09-30T21:43:02.040Z,80.97
2022-09-30T21:45:49.074Z,80.76
2022-09-30T21:48:35.997Z,80.93
2022-09-30T21:51:24.931Z,80.47
2022-09-30T21:54:11.906Z,80.81
2022-09-30T21:56:59.052Z,80.86
2022-09-30T21:59:50.291Z,80.86
2022-09-30T22:02:37.589Z,80.89
2022-09-30T22:05:24.932Z,80.90
2022-09-30T22:08:11.839Z,80.98
2022-09-30T22:11:02.832Z,81.09
2022-09-30T22:13:49.820Z,80.86
2022-09-30T22:16:36.973Z,80.80
2022-09-30T22:19:26.353Z,80.66
2022-09-30T22:22:13.622Z,80.61
2022-09-30T22:25:00.531Z,80.70
2022-09-30T22:27:47.515Z,80.99
2022-09-30T22:30:34.464Z,80.85
2022-09-30T22:33:20.002Z,80.55
2022-09-30T22:36:05.463Z,80.44
2022-09-30T22:38:52.434Z,80.69
2022-09-30T22:41:39.296Z,80.86
2022-09-30T22:44:26.472Z,80.42
2022-09-30T22:47:14.200Z,80.64
2022-09-30T22:50:01.240Z,80.26
2022-09-30T22:52:48.082Z,80.52
2022-09-30T22:55:35.176Z,80.04
2022-09-30T22:58:22.140Z,80.11
2022-09-30T23:01:16.633Z,80.60
2022-09-30T23:04:03.674Z,80.81
2022-09-30T23:06:50.640Z,81.20
2022-09-30T23:09:38.271Z,81.12
2022-09-30T23:12:25.175Z,80.39
2022-09-30T23:15:12.089Z,80.98
2022-09-30T23:17:59.127Z,80.19
2022-09-30T23:20:46.124Z,81.25
2022-09-30T23:23:33.129Z,80.77
2022-09-30T23:26:30.190Z,80.20
2022-09-30T23:29:26.357Z,80.49
2022-09-30T23:32:13.168Z,81.17
2022-09-30T23:35:00.240Z,80.43
2022-09-30T23:37:47.047Z,81.15
2022-09-30T23:40:34.143Z,81.25
2022-09-30T23:43:21.076Z,80.30
2022-09-30T23:46:08.266Z,81.09
2022-09-30T23:48:58.899Z,81.18
2022-09-30T23:51:46.079Z,80.46
2022-09-30T23:54:32.895Z,80.61
2022-09-30T23:57:19.900Z,81.13
